Time;durP1;ratioP1;P1;durP2;ratioP2;P2;SDS_P1;SDS_P2;PMS_P1;PMS_P2;Temp;Humidity;BMP_temperature;BMP_pressure;BME280_temperature;BME280_humidity;BME280_pressure;Samples;Min_cycle;Max_cycle;Signal;HPM_P1;HPM_P2
2023/05/03 00:01:19;;;;;;;7.90;3.40;;;;;;;6.07;100.00;102859.38;4994462;28;20045;-71
2023/05/03 00:03:45;;;;;;;15.90;4.57;;;;;;;6.11;100.00;102869.03;4994866;28;20034;-71
2023/05/03 00:06:14;;;;;;;7.97;3.38;;;;;;;6.12;100.00;102861.94;4993192;28;20049;-72
2023/05/03 00:08:41;;;;;;;8.15;4.40;;;;;;;6.09;100.00;102859.38;4994190;28;20030;-72
2023/05/03 00:11:07;;;;;;;12.23;4.00;;;;;;;6.07;100.00;102869.09;4999731;28;20038;-72
2023/05/03 00:13:33;;;;;;;7.57;3.95;;;;;;;6.05;100.00;102868.22;5001623;28;20080;-72
2023/05/03 00:15:58;;;;;;;7.72;3.45;;;;;;;6.09;100.00;102862.88;4994041;28;20034;-71
2023/05/03 00:18:24;;;;;;;7.15;3.90;;;;;;;6.09;100.00;102859.38;4990872;28;20504;-72
2023/05/03 00:20:52;;;;;;;9.98;4.07;;;;;;;5.99;100.00;102860.38;5007420;28;20854;-72
2023/05/03 00:23:18;;;;;;;12.00;4.75;;;;;;;5.79;100.00;102860.56;5005129;28;21083;-71
2023/05/03 00:25:44;;;;;;;10.60;4.45;;;;;;;5.63;100.00;102857.22;4993034;28;20034;-71
2023/05/03 00:28:09;;;;;;;9.35;4.88;;;;;;;5.70;100.00;102861.53;4983212;28;20130;-72
2023/05/03 00:30:35;;;;;;;10.05;4.57;;;;;;;5.67;100.00;102861.53;5008297;28;20786;-71
2023/05/03 00:33:00;;;;;;;5.63;3.97;;;;;;;5.67;100.00;102857.16;4993837;28;20053;-70
2023/05/03 00:35:26;;;;;;;14.75;5.35;;;;;;;5.70;100.00;102857.09;5020372;28;20036;-71
2023/05/03 00:37:52;;;;;;;17.08;4.57;;;;;;;5.72;100.00;102855.34;4993851;28;20038;-72
2023/05/03 00:40:23;;;;;;;7.10;4.65;;;;;;;5.70;100.00;102854.47;5002014;28;20084;-70
2023/05/03 00:42:49;;;;;;;8.52;4.50;;;;;;;5.73;100.00;102861.50;5000507;28;20524;-71
2023/05/03 00:45:15;;;;;;;10.73;4.45;;;;;;;5.73;100.00;102856.22;5010929;28;20129;-71
2023/05/03 00:47:41;;;;;;;10.05;4.57;;;;;;;5.70;100.00;102851.81;4998488;28;20113;-71
2023/05/03 00:50:10;;;;;;;9.80;4.60;;;;;;;5.73;100.00;102856.22;5022765;28;20148;-72
2023/05/03 00:52:36;;;;;;;9.55;5.13;;;;;;;5.67;100.00;102858.91;5006799;28;20039;-72
2023/05/03 00:55:02;;;;;;;18.27;5.88;;;;;;;5.67;100.00;102853.59;5002184;28;20026;-72
2023/05/03 00:57:29;;;;;;;11.25;5.30;;;;;;;5.49;100.00;102856.47;4997533;28;20034;-71
2023/05/03 00:59:58;;;;;;;9.02;4.93;;;;;;;5.52;100.00;102862.56;5007648;28;20050;-72
2023/05/03 01:02:23;;;;;;;10.55;4.80;;;;;;;5.47;100.00;102864.38;5009068;28;20030;-72
2023/05/03 01:04:53;;;;;;;17.70;5.43;;;;;;;5.46;100.00;102870.59;5007877;28;20084;-72
2023/05/03 01:07:27;;;;;;;10.55;5.43;;;;;;;5.41;100.00;102852.09;5025854;28;20027;-72
2023/05/03 01:10:03;;;;;;;7.80;5.00;;;;;;;5.47;100.00;102853.81;5012327;28;20050;-72
2023/05/03 01:12:37;;;;;;;10.52;5.20;;;;;;;5.39;100.00;102848.59;4996147;28;20042;-73
2023/05/03 01:15:50;;;;;;;9.52;5.25;;;;;;;5.39;100.00;102853.91;4999226;28;20038;-71
2023/05/03 01:18:29;;;;;;;10.57;5.15;;;;;;;5.43;100.00;102849.47;5001193;28;20053;-72
2023/05/03 01:20:59;;;;;;;17.40;5.63;;;;;;;5.36;100.00;102845.97;5010347;28;20088;-72
2023/05/03 01:23:39;;;;;;;8.32;4.95;;;;;;;5.35;100.00;102854.81;4999282;28;20037;-72
2023/05/03 01:26:17;;;;;;;15.40;5.68;;;;;;;5.37;100.00;102855.69;4995063;28;20172;-72
2023/05/03 01:28:42;;;;;;;11.15;5.55;;;;;;;5.22;100.00;102858.47;5013513;28;20080;-72
2023/05/03 01:31:11;;;;;;;15.60;4.90;;;;;;;5.22;100.00;102855.84;5013069;28;20039;-72
2023/05/03 01:34:01;;;;;;;15.40;6.07;;;;;;;5.17;100.00;102855.88;4992686;28;20807;-72
2023/05/03 01:36:33;;;;;;;13.63;6.00;;;;;;;5.22;100.00;102871.69;4993380;28;20118;-73
2023/05/03 01:39:16;;;;;;;9.30;5.63;;;;;;;5.21;100.00;102867.28;4992247;28;20038;-71
2023/05/03 01:41:42;;;;;;;13.20;5.47;;;;;;;5.15;100.00;102873.50;5007861;28;20041;-71
2023/05/03 01:44:10;;;;;;;9.93;5.03;;;;;;;5.12;100.00;102870.00;4993496;28;20136;-72
2023/05/03 01:46:45;;;;;;;12.90;6.28;;;;;;;5.09;100.00;102872.69;4993210;28;20058;-72
2023/05/03 01:49:11;;;;;;;10.10;5.10;;;;;;;5.14;100.00;102873.53;4995431;28;20112;-71
2023/05/03 01:51:36;;;;;;;14.65;5.40;;;;;;;5.07;100.00;102875.34;4992296;28;20117;-72
2023/05/03 01:54:02;;;;;;;9.25;6.07;;;;;;;5.04;100.00;102879.78;4992767;28;20034;-71
2023/05/03 01:56:29;;;;;;;9.35;5.38;;;;;;;5.07;100.00;102879.72;4995449;28;20790;-72
2023/05/03 01:58:56;;;;;;;7.82;5.38;;;;;;;4.92;100.00;102881.63;4991059;28;20074;-72
2023/05/03 02:01:21;;;;;;;15.77;6.18;;;;;;;4.97;100.00;102872.75;5004405;28;20049;-72
2023/05/03 02:03:47;;;;;;;12.13;5.93;;;;;;;4.93;100.00;102872.78;4997119;28;20886;-72
2023/05/03 02:06:12;;;;;;;11.35;5.53;;;;;;;4.85;100.00;102882.53;4996281;28;20030;-71
2023/05/03 02:08:41;;;;;;;10.85;5.00;;;;;;;4.84;100.00;102883.44;4993636;28;20031;-72
2023/05/03 02:11:07;;;;;;;11.07;5.75;;;;;;;4.91;100.00;102871.03;4997630;28;20034;-72
2023/05/03 02:13:35;;;;;;;12.70;6.13;;;;;;;4.93;100.00;102867.50;4990745;28;20314;-71
2023/05/03 02:16:01;;;;;;;12.73;4.97;;;;;;;4.86;100.00;102865.78;4992578;28;20030;-72
2023/05/03 02:18:30;;;;;;;13.95;5.70;;;;;;;4.86;100.00;102868.41;4991082;28;20047;-71
2023/05/03 02:20:56;;;;;;;13.23;5.45;;;;;;;4.82;100.00;102872.00;4998558;28;20042;-72
2023/05/03 02:23:23;;;;;;;10.50;5.75;;;;;;;4.68;100.00;102882.66;4995484;28;20026;-71
2023/05/03 02:25:51;;;;;;;10.50;4.97;;;;;;;4.78;100.00;102882.59;4997939;28;20065;-71
2023/05/03 02:28:17;;;;;;;11.63;5.78;;;;;;;4.78;100.00;102872.91;4990004;28;20563;-72
2023/05/03 02:30:43;;;;;;;15.00;5.32;;;;;;;4.78;100.00;102875.53;4993086;28;20106;-71
2023/05/03 02:33:11;;;;;;;11.95;5.60;;;;;;;4.73;100.00;102871.19;4993816;28;20042;-71
2023/05/03 02:35:38;;;;;;;11.73;7.40;;;;;;;4.79;100.00;102872.00;5016158;28;20104;-71
2023/05/03 02:38:04;;;;;;;16.80;6.35;;;;;;;4.59;100.00;102868.63;4991182;28;20030;-72
2023/05/03 02:40:30;;;;;;;8.55;6.07;;;;;;;4.59;100.00;102868.63;5008296;28;20934;-71
2023/05/03 02:42:56;;;;;;;8.57;5.13;;;;;;;4.62;100.00;102868.59;5008001;28;20037;-72
2023/05/03 02:45:29;;;;;;;10.82;6.25;;;;;;;4.62;100.00;102868.59;4990333;28;20053;-71
2023/05/03 02:47:58;;;;;;;13.55;6.35;;;;;;;4.72;100.00;102869.41;5003297;28;20108;-71
2023/05/03 02:50:27;;;;;;;13.68;5.85;;;;;;;4.65;100.00;102869.44;5012923;28;20034;-72
2023/05/03 02:52:53;;;;;;;9.82;5.28;;;;;;;4.52;100.00;102867.78;5010468;28;20076;-72
2023/05/03 02:55:19;;;;;;;12.57;5.35;;;;;;;4.49;100.00;102864.28;4992952;28;20790;-72
2023/05/03 02:57:46;;;;;;;14.13;5.85;;;;;;;4.47;100.00;102860.75;5008170;28;20926;-72
2023/05/03 03:00:16;;;;;;;11.93;6.15;;;;;;;4.39;100.00;102856.38;4999233;28;20926;-71
2023/05/03 03:02:42;;;;;;;11.93;5.88;;;;;;;4.38;100.00;102852.00;4993199;28;20074;-71
2023/05/03 03:05:11;;;;;;;19.30;6.22;;;;;;;4.34;100.00;102846.75;5000381;28;20976;-72
2023/05/03 03:07:41;;;;;;;7.82;4.97;;;;;;;4.31;100.00;102852.91;5004216;28;20042;-72
2023/05/03 03:10:07;;;;;;;11.45;6.28;;;;;;;4.33;100.00;102840.59;4992858;28;20066;-72
2023/05/03 03:12:35;;;;;;;11.27;6.43;;;;;;;4.42;100.00;102839.66;5001819;28;20034;-70
2023/05/03 03:15:02;;;;;;;12.60;6.75;;;;;;;4.39;100.00;102837.91;4985152;28;20035;-71
2023/05/03 03:17:30;;;;;;;13.55;6.88;;;;;;;4.35;100.00;102832.63;4983345;28;20034;-71
2023/05/03 03:20:03;;;;;;;14.77;5.90;;;;;;;4.29;100.00;102827.41;4985189;28;20193;-72
2023/05/03 03:22:30;;;;;;;18.10;6.53;;;;;;;4.11;100.00;102829.22;4992552;28;20124;-71
2023/05/03 03:24:56;;;;;;;13.00;6.15;;;;;;;4.19;100.00;102823.94;5013064;28;20285;-72
2023/05/03 03:27:22;;;;;;;12.38;6.68;;;;;;;4.18;100.00;102826.59;4992049;28;20030;-71
2023/05/03 03:29:48;;;;;;;11.20;5.93;;;;;;;4.23;100.00;102812.47;4993033;28;20114;-71
2023/05/03 03:32:14;;;;;;;11.10;7.15;;;;;;;4.24;100.00;102810.69;4995046;28;20042;-71
2023/05/03 03:34:40;;;;;;;12.55;6.20;;;;;;;4.25;100.00;102813.31;5005125;28;20813;-71
2023/05/03 03:37:05;;;;;;;14.23;6.75;;;;;;;4.29;100.00;102814.19;4990000;28;20787;-72
2023/05/03 03:39:32;;;;;;;17.15;6.93;;;;;;;4.35;100.00;102817.66;5004972;28;20069;-70
2023/05/03 03:41:59;;;;;;;15.75;6.95;;;;;;;4.30;100.00;102815.94;4987352;28;20034;-71
2023/05/03 03:44:24;;;;;;;11.07;6.28;;;;;;;4.31;100.00;102822.97;5003118;28;20077;-72
2023/05/03 03:46:50;;;;;;;20.55;7.10;;;;;;;4.31;100.00;102828.25;4990118;28;20160;-71
2023/05/03 03:49:17;;;;;;;14.85;6.50;;;;;;;4.26;100.00;102825.63;4990296;28;20047;-72
2023/05/03 03:51:42;;;;;;;17.30;7.82;;;;;;;4.24;100.00;102832.69;5005780;28;20049;-70
2023/05/03 03:54:08;;;;;;;15.60;7.05;;;;;;;4.31;100.00;102829.13;4989959;28;20384;-71
2023/05/03 03:56:41;;;;;;;8.73;5.35;;;;;;;4.25;100.00;102839.72;4988306;28;20062;-72
2023/05/03 03:59:07;;;;;;;12.50;5.75;;;;;;;4.25;100.00;102841.50;4991010;28;20034;-72
2023/05/03 04:01:32;;;;;;;15.95;5.90;;;;;;;3.93;100.00;102834.59;5011610;28;20046;-71
2023/05/03 04:03:58;;;;;;;10.90;5.72;;;;;;;3.92;100.00;102842.53;4996555;28;20334;-71
2023/05/03 04:06:25;;;;;;;8.73;5.05;;;;;;;3.94;100.00;102840.75;5014700;28;20576;-72
2023/05/03 04:08:52;;;;;;;10.77;5.80;;;;;;;4.06;100.00;102852.13;4973176;28;20049;-71
2023/05/03 04:11:17;;;;;;;11.98;6.65;;;;;;;4.10;100.00;102850.38;4990673;28;20030;-72
2023/05/03 04:13:48;;;;;;;16.00;6.40;;;;;;;4.11;100.00;102850.34;4993522;28;20061;-71
2023/05/03 04:16:15;;;;;;;10.18;6.20;;;;;;;4.13;100.00;102842.44;5010599;28;20030;-72
2023/05/03 04:18:41;;;;;;;12.85;7.00;;;;;;;4.54;100.00;102849.28;4993796;28;20042;-71
2023/05/03 04:21:08;;;;;;;8.38;5.60;;;;;;;5.15;100.00;102840.88;5003282;28;20076;-71
2023/05/03 04:23:34;;;;;;;16.05;7.05;;;;;;;5.77;100.00;102839.38;5019440;28;20035;-71
2023/05/03 04:26:00;;;;;;;14.70;6.00;;;;;;;6.06;100.00;102841.72;4992236;28;20043;-71
2023/05/03 04:28:27;;;;;;;13.45;5.93;;;;;;;6.34;100.00;102839.59;5013293;28;20138;-71
2023/05/03 04:30:52;;;;;;;10.48;6.03;;;;;;;6.39;100.00;102848.38;5001188;28;20065;-71
2023/05/03 04:33:23;;;;;;;10.07;5.18;;;;;;;6.48;100.00;102852.69;4997022;28;20125;-72
2023/05/03 04:35:54;;;;;;;10.52;5.95;;;;;;;7.07;100.00;102842.91;5015543;28;20124;-72
2023/05/03 04:38:21;;;;;;;10.75;5.78;;;;;;;7.84;97.36;102844.19;5000196;28;20050;-71
2023/05/03 04:40:47;;;;;;;8.95;5.88;;;;;;;8.65;92.41;102853.13;5003393;28;20508;-72
2023/05/03 04:43:13;;;;;;;11.85;5.57;;;;;;;9.32;86.37;102847.03;4980939;28;20030;-71
2023/05/03 04:45:42;;;;;;;11.00;5.63;;;;;;;9.92;81.18;102858.72;5014497;28;20045;-71
2023/05/03 04:48:13;;;;;;;13.02;5.65;;;;;;;10.56;76.89;102850.66;5014223;28;20491;-72
2023/05/03 04:50:39;;;;;;;8.30;5.70;;;;;;;10.78;74.88;102845.50;4997586;28;20038;-72
2023/05/03 04:53:07;;;;;;;7.43;5.38;;;;;;;10.71;72.84;102852.84;4999759;28;20041;-71
2023/05/03 04:55:36;;;;;;;14.63;5.28;;;;;;;10.92;72.62;102858.41;5016324;28;20031;-72
2023/05/03 04:58:03;;;;;;;16.52;5.15;;;;;;;10.79;71.31;102856.16;5013321;28;20128;-72
2023/05/03 05:00:29;;;;;;;9.20;5.45;;;;;;;10.84;71.08;102862.22;5024459;28;20603;-71
2023/05/03 05:03:01;;;;;;;11.32;7.20;;;;;;;9.81;69.08;102876.81;5024149;28;20034;-70
2023/05/03 05:05:29;;;;;;;13.93;4.60;;;;;;;9.88;72.32;102877.50;5003237;28;20030;-72
2023/05/03 05:07:57;;;;;;;18.63;5.72;;;;;;;9.04;75.95;102888.56;5004388;28;20042;-72
2023/05/03 05:10:23;;;;;;;13.02;5.30;;;;;;;9.44;76.03;102888.44;5000323;28;20125;-71
2023/05/03 05:12:49;;;;;;;14.55;4.95;;;;;;;9.69;74.49;102883.34;5000549;28;20787;-71
2023/05/03 05:15:15;;;;;;;12.07;5.20;;;;;;;10.08;73.90;102891.13;5019813;28;20038;-72
2023/05/03 05:17:40;;;;;;;12.38;5.32;;;;;;;9.63;74.70;102893.28;4997838;28;21093;-72
2023/05/03 05:20:11;;;;;;;11.57;5.18;;;;;;;10.52;74.00;102889.88;4997902;28;20057;-72
2023/05/03 05:22:38;;;;;;;8.05;4.55;;;;;;;10.44;71.89;102891.03;5005475;28;20045;-71
2023/05/03 05:25:07;;;;;;;10.05;5.60;;;;;;;11.09;71.12;102894.34;5026766;28;20046;-72
2023/05/03 05:27:33;;;;;;;9.35;5.43;;;;;;;10.14;73.18;102896.31;5004554;28;20038;-73
2023/05/03 05:29:59;;;;;;;9.73;5.05;;;;;;;10.82;71.21;102904.06;5005951;28;20086;-71
2023/05/03 05:32:29;;;;;;;12.45;5.00;;;;;;;9.71;73.64;102908.16;4994450;28;20038;-73
2023/05/03 05:34:58;;;;;;;9.38;4.85;;;;;;;10.02;74.81;102915.31;4996947;28;20178;-72
2023/05/03 05:37:29;;;;;;;12.23;5.88;;;;;;;10.52;72.42;102908.56;4997401;28;20173;-71
2023/05/03 05:39:58;;;;;;;12.27;5.50;;;;;;;9.87;78.18;102911.28;5010542;28;20034;-72
2023/05/03 05:42:27;;;;;;;12.23;5.25;;;;;;;9.72;78.64;102912.56;4999323;28;20109;-72
2023/05/03 05:44:53;;;;;;;12.95;4.80;;;;;;;10.18;76.74;102910.41;4985471;28;20957;-73
2023/05/03 05:47:20;;;;;;;11.00;4.68;;;;;;;9.42;78.19;102918.69;4999794;28;20041;-72
2023/05/03 05:49:47;;;;;;;13.32;5.53;;;;;;;10.22;77.85;102922.75;5019176;28;20042;-73
2023/05/03 05:52:13;;;;;;;11.18;5.25;;;;;;;10.49;74.78;102914.00;4992234;28;20108;-71
2023/05/03 05:54:39;;;;;;;9.15;4.95;;;;;;;10.73;76.04;102916.81;4992814;28;20092;-72
2023/05/03 05:57:07;;;;;;;9.00;4.57;;;;;;;10.69;76.92;102921.38;4990488;28;20038;-71
2023/05/03 05:59:34;;;;;;;9.60;5.07;;;;;;;9.96;78.45;102920.81;5005418;28;20058;-72
2023/05/03 06:02:00;;;;;;;11.50;5.38;;;;;;;9.92;79.31;102927.13;5009932;28;20045;-73
2023/05/03 06:04:27;;;;;;;13.07;5.20;;;;;;;9.92;79.25;102925.34;5013092;28;20038;-72
2023/05/03 06:06:54;;;;;;;8.73;5.30;;;;;;;10.34;77.60;102919.75;4995044;28;20053;-71
2023/05/03 06:09:20;;;;;;;7.85;5.13;;;;;;;9.92;77.63;102920.00;4992166;28;20050;-71
2023/05/03 06:11:46;;;;;;;8.45;5.40;;;;;;;10.01;78.12;102922.44;5006414;28;20034;-72
2023/05/03 06:14:12;;;;;;;11.63;5.68;;;;;;;10.18;76.93;102926.41;4989998;28;20038;-71
2023/05/03 06:16:39;;;;;;;9.30;4.97;;;;;;;10.18;77.83;102919.28;4991506;28;20912;-72
2023/05/03 06:19:07;;;;;;;8.05;5.15;;;;;;;10.47;78.59;102917.63;4998514;28;20180;-73
2023/05/03 06:21:33;;;;;;;9.73;4.93;;;;;;;10.46;76.03;102915.88;4990302;28;20042;-72
2023/05/03 06:23:59;;;;;;;9.98;4.82;;;;;;;10.67;78.35;102911.69;5007378;28;20030;-72
2023/05/03 06:26:26;;;;;;;11.60;5.07;;;;;;;10.48;75.85;102909.56;4994454;28;20043;-72
2023/05/03 06:28:52;;;;;;;8.57;5.15;;;;;;;10.49;77.34;102910.44;5002357;28;20042;-71
2023/05/03 06:31:18;;;;;;;8.27;5.18;;;;;;;10.14;76.82;102912.31;5006501;28;20038;-72
2023/05/03 06:33:44;;;;;;;10.52;4.68;;;;;;;10.65;75.96;102916.22;4996094;28;20160;-72
2023/05/03 06:36:10;;;;;;;12.15;5.15;;;;;;;10.30;77.94;102913.66;4991138;28;20136;-71
2023/05/03 06:38:36;;;;;;;8.52;5.05;;;;;;;10.73;76.60;102916.81;5018375;28;20038;-72
2023/05/03 06:41:02;;;;;;;12.23;5.22;;;;;;;10.53;73.94;102917.41;5005656;28;20056;-71
2023/05/03 06:43:29;;;;;;;8.30;4.88;;;;;;;11.44;70.59;102905.59;5006048;28;20177;-72
2023/05/03 06:46:00;;;;;;;8.55;5.10;;;;;;;11.04;72.05;102906.91;4988790;28;20078;-71
2023/05/03 06:48:26;;;;;;;14.48;4.85;;;;;;;11.26;68.91;102904.44;4996616;28;20026;-72
2023/05/03 06:50:53;;;;;;;10.68;4.53;;;;;;;11.29;72.48;102904.31;4991455;28;20042;-72
2023/05/03 06:53:18;;;;;;;10.18;4.82;;;;;;;11.29;70.09;102904.31;4996335;28;20034;-71
2023/05/03 06:55:46;;;;;;;9.95;4.38;;;;;;;11.17;68.74;102901.19;4990440;28;20042;-71
2023/05/03 06:58:12;;;;;;;13.77;5.25;;;;;;;11.57;68.27;102890.91;4992934;28;20045;-71
2023/05/03 07:00:38;;;;;;;8.43;4.43;;;;;;;11.28;70.11;102901.72;4998359;28;20045;-72
2023/05/03 07:03:05;;;;;;;10.80;4.30;;;;;;;11.35;68.12;102893.47;5017030;28;20042;-71
2023/05/03 07:05:30;;;;;;;7.07;3.45;;;;;;;11.77;68.46;102890.22;4996564;28;20045;-72
2023/05/03 07:07:56;;;;;;;6.97;2.90;;;;;;;11.93;63.70;102887.91;4999238;28;20100;-72
2023/05/03 07:10:21;;;;;;;7.65;3.00;;;;;;;12.04;62.63;102890.19;4993906;28;20674;-71
2023/05/03 07:12:47;;;;;;;9.07;2.70;;;;;;;12.21;61.80;102893.13;4992710;28;20042;-70
2023/05/03 07:15:13;;;;;;;8.23;3.38;;;;;;;12.09;61.97;102889.06;4991176;28;20039;-73
2023/05/03 07:17:41;;;;;;;5.68;2.60;;;;;;;12.30;60.96;102883.84;4991925;28;20112;-73
2023/05/03 07:20:07;;;;;;;7.00;2.03;;;;;;;12.30;58.65;102883.84;4992569;28;20598;-70
2023/05/03 07:22:33;;;;;;;7.07;2.35;;;;;;;12.18;58.15;102877.16;4992626;28;20108;-72
2023/05/03 07:24:58;;;;;;;4.90;2.42;;;;;;;12.49;57.16;102876.88;4991689;28;20046;-73
2023/05/03 07:27:25;;;;;;;8.13;2.63;;;;;;;12.31;56.94;102866.91;4991323;28;20453;-72
2023/05/03 07:29:53;;;;;;;4.75;2.30;;;;;;;11.96;56.30;102879.78;4996825;28;21180;-71
2023/05/03 07:32:20;;;;;;;6.55;3.15;;;;;;;12.52;56.90;102882.13;4995033;28;20046;-72
2023/05/03 07:34:46;;;;;;;5.80;2.40;;;;;;;12.67;60.07;102886.88;4989769;28;20051;-71
2023/05/03 07:37:11;;;;;;;4.32;2.45;;;;;;;12.25;58.50;102896.53;4991073;28;20097;-71
2023/05/03 07:39:38;;;;;;;6.75;2.20;;;;;;;11.93;59.51;102894.13;4991215;28;20097;-72
2023/05/03 07:42:03;;;;;;;10.95;2.80;;;;;;;11.92;61.73;102889.69;4994760;28;20054;-72
2023/05/03 07:44:29;;;;;;;8.98;2.50;;;;;;;12.02;57.47;102876.00;4993887;28;20113;-71
2023/05/03 07:46:55;;;;;;;6.30;3.08;;;;;;;12.10;60.82;102882.81;4989977;28;20097;-70
2023/05/03 07:49:21;;;;;;;14.65;3.28;;;;;;;12.01;59.46;102866.25;4996443;28;20030;-71
2023/05/03 07:51:47;;;;;;;7.15;2.00;;;;;;;12.80;57.51;102856.91;4995579;28;20750;-71
2023/05/03 07:54:12;;;;;;;10.15;4.10;;;;;;;12.70;55.52;102853.75;5000092;28;20687;-71
2023/05/03 07:56:38;;;;;;;11.10;3.15;;;;;;;12.90;57.87;102856.50;4996389;28;20523;-71
2023/05/03 07:59:03;;;;;;;9.40;3.00;;;;;;;12.62;58.13;102850.50;4993863;28;20026;-70
2023/05/03 08:01:29;;;;;;;13.43;2.85;;;;;;;12.44;57.68;102857.44;4991642;28;20053;-71
2023/05/03 08:03:58;;;;;;;9.13;2.75;;;;;;;12.98;56.61;102842.78;4999669;28;20042;-72
2023/05/03 08:06:23;;;;;;;9.50;3.30;;;;;;;12.47;60.08;102843.97;5000791;28;20117;-71
2023/05/03 08:08:49;;;;;;;6.53;3.45;;;;;;;12.29;61.04;102850.00;4997051;28;20035;-71
2023/05/03 08:11:15;;;;;;;6.57;2.40;;;;;;;12.30;59.40;102847.31;4993260;28;20038;-71
2023/05/03 08:13:40;;;;;;;3.92;2.67;;;;;;;12.15;58.26;102842.53;4999439;28;20034;-71
2023/05/03 08:16:06;;;;;;;11.40;3.20;;;;;;;12.50;58.22;102850.97;4994430;28;20046;-71
2023/05/03 08:18:31;;;;;;;7.93;2.97;;;;;;;12.70;57.27;102835.91;4999411;28;20042;-71
2023/05/03 08:20:57;;;;;;;7.88;2.90;;;;;;;12.64;58.56;102830.75;4993929;28;20046;-71
2023/05/03 08:23:24;;;;;;;8.93;3.65;;;;;;;12.89;57.48;102827.97;4974528;28;20045;-72
2023/05/03 08:25:50;;;;;;;8.18;2.70;;;;;;;12.75;57.26;102825.00;4997110;28;20142;-71
2023/05/03 08:28:15;;;;;;;7.07;2.60;;;;;;;12.65;59.84;102823.59;4994042;28;20038;-71
2023/05/03 08:30:41;;;;;;;8.80;2.72;;;;;;;12.69;59.51;102830.59;4998114;28;20073;-72
2023/05/03 08:33:09;;;;;;;6.57;2.38;;;;;;;13.40;59.14;102823.19;4993367;28;20038;-71
2023/05/03 08:35:35;;;;;;;6.40;2.97;;;;;;;12.78;57.14;102824.88;5010798;28;20157;-71
2023/05/03 08:38:01;;;;;;;9.40;3.10;;;;;;;12.89;58.84;102825.28;5004957;28;20350;-71
2023/05/03 08:40:28;;;;;;;6.93;2.50;;;;;;;12.27;56.65;102820.66;4994247;28;20056;-72
2023/05/03 08:42:56;;;;;;;7.15;2.75;;;;;;;12.68;56.36;102820.81;4993663;28;20043;-72
2023/05/03 08:45:25;;;;;;;10.73;2.78;;;;;;;12.99;55.35;102835.63;4993564;28;20062;-71
2023/05/03 08:47:54;;;;;;;7.90;2.78;;;;;;;13.18;56.27;102824.06;4993570;28;20482;-72
2023/05/03 08:50:20;;;;;;;6.05;3.28;;;;;;;12.56;60.76;102846.28;4991387;28;20503;-72
2023/05/03 08:52:45;;;;;;;7.35;3.10;;;;;;;12.78;57.73;102832.03;5001841;28;20034;-71
2023/05/03 08:55:11;;;;;;;7.55;3.45;;;;;;;12.27;57.89;102839.38;4995149;28;20042;-71
2023/05/03 08:57:37;;;;;;;12.77;3.60;;;;;;;12.59;61.09;102835.44;4995198;28;20041;-70
2023/05/03 09:00:09;;;;;;;6.82;2.90;;;;;;;12.91;59.66;102838.63;5007487;28;20053;-71
2023/05/03 09:02:38;;;;;;;6.45;3.10;;;;;;;13.08;59.91;102843.28;5006750;28;20039;-70
2023/05/03 09:05:13;;;;;;;6.13;3.10;;;;;;;13.03;58.92;102829.22;5006674;28;20040;-71
2023/05/03 09:07:38;;;;;;;7.38;3.92;;;;;;;13.11;58.06;102832.44;5000756;28;20141;-71
2023/05/03 09:10:21;;;;;;;7.25;4.05;;;;;;;12.85;62.25;102830.81;5000755;28;20038;-71
2023/05/03 09:12:47;;;;;;;12.07;3.45;;;;;;;12.47;61.51;102825.22;5001988;28;20146;-71
2023/05/03 09:15:20;;;;;;;4.25;2.90;;;;;;;12.69;60.84;102820.75;5002525;28;20564;-71
2023/05/03 09:18:05;;;;;;;11.77;3.60;;;;;;;12.95;61.14;102819.69;5007928;28;20089;-72
2023/05/03 09:20:35;;;;;;;8.77;3.35;;;;;;;12.73;61.06;102810.78;4994558;28;20052;-71
2023/05/03 09:23:01;;;;;;;12.80;3.60;;;;;;;12.49;58.43;102803.75;5002297;28;20108;-72
2023/05/03 09:25:47;;;;;;;7.95;4.30;;;;;;;12.63;58.74;102801.41;5018670;28;20076;-71
2023/05/03 09:28:17;;;;;;;8.55;4.18;;;;;;;13.06;61.15;102813.03;4993645;28;20022;-72
2023/05/03 09:30:44;;;;;;;10.23;3.85;;;;;;;13.01;57.99;102821.25;5011099;28;20053;-71
2023/05/03 09:33:10;;;;;;;8.70;4.22;;;;;;;12.79;56.85;102820.38;4997215;28;20034;-71
2023/05/03 09:35:54;;;;;;;13.90;3.65;;;;;;;12.62;57.54;102818.41;5003868;28;20045;-71
2023/05/03 09:38:35;;;;;;;9.65;3.88;;;;;;;12.95;57.87;102818.81;5002243;28;20042;-71
2023/05/03 09:41:02;;;;;;;11.25;3.83;;;;;;;12.69;61.18;102817.19;5000618;28;20050;-70
2023/05/03 09:43:27;;;;;;;7.30;3.22;;;;;;;12.62;62.15;102838.00;5000756;28;20121;-69
2023/05/03 09:46:07;;;;;;;9.82;3.92;;;;;;;12.85;60.30;102821.03;5007353;28;20219;-70
2023/05/03 09:48:32;;;;;;;5.88;3.75;;;;;;;12.76;58.29;102812.50;5005584;28;20081;-69
2023/05/03 09:50:58;;;;;;;7.78;3.58;;;;;;;12.64;60.48;102828.09;4997413;28;20487;-70
2023/05/03 09:53:25;;;;;;;9.43;3.83;;;;;;;12.66;59.96;102830.72;4993458;28;20652;-70
2023/05/03 09:55:51;;;;;;;6.88;4.00;;;;;;;13.07;58.88;102806.72;5006532;28;20104;-72
2023/05/03 09:58:17;;;;;;;10.15;4.15;;;;;;;13.28;62.77;102813.88;5002840;28;20044;-70
2023/05/03 10:00:47;;;;;;;6.78;3.60;;;;;;;13.48;59.18;102805.84;4997432;28;20038;-69
2023/05/03 10:03:27;;;;;;;10.23;3.47;;;;;;;13.43;57.58;102810.53;5007299;28;20034;-71
2023/05/03 10:05:54;;;;;;;13.60;4.03;;;;;;;14.05;56.82;102811.31;4996825;28;20102;-70
2023/05/03 10:08:35;;;;;;;10.70;4.07;;;;;;;13.29;60.14;102820.97;4997053;28;20030;-70
2023/05/03 10:11:03;;;;;;;8.60;3.92;;;;;;;13.21;61.26;102807.91;4999581;28;20081;-70
2023/05/03 10:13:29;;;;;;;7.60;4.03;;;;;;;13.22;58.55;102798.06;4996124;28;20897;-70
2023/05/03 10:16:02;;;;;;;11.02;4.43;;;;;;;13.76;57.97;102795.69;5006550;28;20134;-71
2023/05/03 10:18:31;;;;;;;7.43;3.58;;;;;;;13.32;56.54;102794.03;4995513;28;20098;-69
2023/05/03 10:21:02;;;;;;;8.80;4.38;;;;;;;13.80;61.43;102798.16;4993653;28;20072;-71
2023/05/03 10:23:28;;;;;;;7.45;3.90;;;;;;;13.34;60.77;102802.00;4994213;28;20445;-70
2023/05/03 10:26:06;;;;;;;11.55;4.28;;;;;;;13.19;62.34;102808.88;4994912;28;20038;-69
2023/05/03 10:28:36;;;;;;;6.47;4.10;;;;;;;13.48;59.33;102794.25;4995854;28;20037;-71
2023/05/03 10:31:02;;;;;;;10.32;4.13;;;;;;;13.46;60.79;102802.38;4997922;28;20066;-71
2023/05/03 10:33:33;;;;;;;8.57;4.25;;;;;;;13.73;59.33;102802.06;4995772;28;20047;-71
2023/05/03 10:36:09;;;;;;;10.82;3.50;;;;;;;14.36;56.33;102793.78;4996039;28;20043;-69
2023/05/03 10:38:36;;;;;;;8.13;4.32;;;;;;;14.14;55.43;102792.09;5002387;28;20034;-70
2023/05/03 10:41:02;;;;;;;6.70;3.67;;;;;;;14.10;59.01;102795.00;4992374;28;20053;-70
2023/05/03 10:43:30;;;;;;;13.63;4.28;;;;;;;13.48;57.32;102789.75;4996245;28;20109;-70
2023/05/03 10:46:05;;;;;;;7.30;4.30;;;;;;;13.44;58.76;102793.50;4998602;28;20046;-72
2023/05/03 10:48:32;;;;;;;11.00;4.80;;;;;;;13.69;57.70;102785.22;4991761;28;20030;-71
2023/05/03 10:51:35;;;;;;;7.97;4.00;;;;;;;13.99;56.13;102784.75;4997093;28;20432;-70
2023/05/03 10:54:01;;;;;;;8.05;4.00;;;;;;;13.51;57.05;102799.47;4968023;28;20216;-70
2023/05/03 10:56:27;;;;;;;8.77;3.78;;;;;;;13.54;62.07;102791.28;4968177;28;20849;-70
2023/05/03 10:58:57;;;;;;;8.77;4.35;;;;;;;13.39;59.02;102794.63;4968915;28;20046;-71
2023/05/03 11:01:26;;;;;;;9.15;3.65;;;;;;;13.93;56.82;102777.00;4952335;28;20137;-71
2023/05/03 11:04:09;;;;;;;17.02;3.85;;;;;;;14.36;55.89;102770.50;4968948;28;20046;-70
2023/05/03 11:06:37;;;;;;;7.15;2.83;;;;;;;14.15;54.32;102779.53;4969642;28;20176;-71
2023/05/03 11:09:05;;;;;;;9.57;3.35;;;;;;;14.08;57.68;102773.59;4952317;28;20054;-70
2023/05/03 11:11:31;;;;;;;5.07;3.25;;;;;;;14.45;56.34;102771.84;4967766;28;20121;-71
2023/05/03 11:13:57;;;;;;;5.95;3.50;;;;;;;14.35;52.09;102766.03;4967757;28;20082;-72
2023/05/03 11:16:23;;;;;;;11.35;3.67;;;;;;;14.07;52.00;102761.16;4951878;28;20038;-71
2023/05/03 11:18:50;;;;;;;4.97;3.28;;;;;;;14.22;54.56;102773.84;4975049;28;20035;-70
2023/05/03 11:21:17;;;;;;;10.52;3.92;;;;;;;14.20;53.37;102759.59;4976701;28;20056;-70
2023/05/03 11:23:45;;;;;;;10.68;3.78;;;;;;;14.62;55.56;102765.69;4959070;28;20039;-70
2023/05/03 11:26:11;;;;;;;5.10;3.70;;;;;;;13.96;54.07;102764.34;4961190;28;20049;-71